Time;durP1;ratioP1;P1;durP2;ratioP2;P2;SDS_P1;SDS_P2;PMS_P1;PMS_P2;Temp;Humidity;BMP_temperature;BMP_pressure;BME280_temperature;BME280_humidity;BME280_pressure;Samples;Min_cycle;Max_cycle;Signal;HPM_P1;HPM_P2
2021/01/30 00:02:06;;;;;;;11.30;3.83;;;;;;;6.87;62.01;100365.50;5048855;28;19917;-77
2021/01/30 00:04:33;;;;;;;10.20;3.50;;;;;;;6.86;62.04;100376.06;5051505;28;20029;-77
2021/01/30 00:06:59;;;;;;;12.88;4.22;;;;;;;6.70;62.25;100375.38;5050050;28;20025;-77
2021/01/30 00:09:27;;;;;;;7.45;4.10;;;;;;;6.78;61.93;100382.28;5052109;28;20021;-77
2021/01/30 00:11:57;;;;;;;8.43;4.28;;;;;;;6.80;61.94;100369.09;5051755;28;20376;-78
2021/01/30 00:17:07;;;;;;;20.55;4.85;;;;;;;6.77;62.41;100385.81;5072023;27;20417;-78
2021/01/30 00:19:35;;;;;;;7.05;4.10;;;;;;;6.78;62.40;100384.91;5058101;28;20064;-77
2021/01/30 00:22:05;;;;;;;8.57;4.05;;;;;;;6.77;62.38;100382.31;5043999;28;20051;-77
2021/01/30 00:24:32;;;;;;;9.88;3.65;;;;;;;6.75;62.12;100381.44;5048012;28;20147;-77
2021/01/30 00:27:02;;;;;;;12.60;3.80;;;;;;;6.75;62.13;100387.59;5043858;28;20021;-78
2021/01/30 00:29:32;;;;;;;7.28;3.78;;;;;;;6.74;62.15;100384.97;5044791;28;20030;-78
2021/01/30 00:31:59;;;;;;;6.97;3.22;;;;;;;6.73;62.25;100389.38;5044553;28;20021;-78
2021/01/30 00:34:28;;;;;;;7.88;3.20;;;;;;;6.70;62.18;100385.91;5044822;28;20105;-77
2021/01/30 00:36:56;;;;;;;4.22;2.75;;;;;;;6.67;61.89;100386.81;5046453;28;20040;-78
2021/01/30 00:39:23;;;;;;;6.15;2.83;;;;;;;6.62;61.75;100381.59;5046178;28;20037;-78
2021/01/30 00:41:50;;;;;;;4.18;2.60;;;;;;;6.55;61.80;100385.16;5046492;28;20060;-77
2021/01/30 00:44:17;;;;;;;5.22;3.28;;;;;;;6.56;61.49;100383.44;5039398;28;20435;-77
2021/01/30 00:46:49;;;;;;;9.18;3.75;;;;;;;6.60;61.35;100382.50;5043120;28;20481;-77
2021/01/30 00:49:17;;;;;;;5.97;3.00;;;;;;;6.56;61.33;100391.31;5042921;28;20026;-78
2021/01/30 00:51:43;;;;;;;5.72;3.17;;;;;;;6.46;61.54;100386.13;5043681;28;20034;-78
2021/01/30 00:54:10;;;;;;;5.55;2.88;;;;;;;6.45;61.28;100394.06;5036141;28;20029;-78
2021/01/30 00:56:37;;;;;;;10.48;3.53;;;;;;;6.30;61.19;100389.81;5043905;28;20064;-79
2021/01/30 00:59:03;;;;;;;4.18;2.90;;;;;;;6.08;61.29;100392.66;5044620;28;20017;-78
2021/01/30 01:01:37;;;;;;;6.45;2.85;;;;;;;6.01;61.24;100390.97;5039350;28;20095;-78
2021/01/30 01:04:04;;;;;;;11.32;3.72;;;;;;;5.99;61.25;100390.09;5039964;28;20057;-77
2021/01/30 01:06:31;;;;;;;8.38;3.10;;;;;;;6.01;60.97;100393.59;5042881;28;20030;-77
2021/01/30 01:08:57;;;;;;;9.98;3.88;;;;;;;6.02;60.85;100389.19;5042145;28;20022;-77
2021/01/30 01:11:24;;;;;;;9.48;3.42;;;;;;;5.98;61.00;100396.19;5046882;28;20468;-77
2021/01/30 01:13:50;;;;;;;8.32;3.53;;;;;;;6.02;60.55;100400.59;5043310;28;20021;-77
2021/01/30 01:16:18;;;;;;;7.78;3.40;;;;;;;6.01;60.98;100392.69;5045677;28;20037;-77
2021/01/30 01:18:46;;;;;;;7.40;3.60;;;;;;;6.08;60.76;100395.28;5044186;28;20506;-77
2021/01/30 01:21:13;;;;;;;6.55;3.72;;;;;;;6.06;61.33;100401.44;5044438;28;20029;-77
2021/01/30 01:23:42;;;;;;;5.38;3.50;;;;;;;6.06;60.79;100396.19;5044590;28;20025;-78
2021/01/30 01:26:10;;;;;;;10.93;3.40;;;;;;;6.06;60.90;100406.72;5040172;28;20188;-77
2021/01/30 01:28:36;;;;;;;10.13;3.78;;;;;;;5.98;60.98;100399.75;5026780;28;20068;-77
2021/01/30 01:31:04;;;;;;;8.77;4.22;;;;;;;5.94;61.05;100408.53;5031726;28;20021;-77
2021/01/30 01:33:31;;;;;;;5.50;3.35;;;;;;;5.94;60.67;100403.28;5031332;28;20032;-78
2021/01/30 01:35:58;;;;;;;8.60;4.57;;;;;;;5.97;60.78;100407.63;5027901;28;20034;-78
2021/01/30 01:38:26;;;;;;;8.18;4.15;;;;;;;5.89;61.13;100410.28;5033551;28;20075;-77
2021/01/30 01:40:52;;;;;;;4.53;3.75;;;;;;;5.95;60.67;100412.88;5034126;28;20028;-77
2021/01/30 01:43:23;;;;;;;6.75;4.75;;;;;;;5.98;60.69;100426.06;5029393;28;20026;-77
2021/01/30 01:49:02;;;;;;;5.90;4.43;;;;;;;5.99;60.31;100411.13;5063795;27;20404;-78
2021/01/30 01:54:16;;;;;;;9.07;5.47;;;;;;;5.77;60.25;100421.78;5071580;28;20451;-78
2021/01/30 01:56:44;;;;;;;7.75;5.20;;;;;;;5.91;60.35;100429.56;5057807;28;20472;-77
2021/01/30 01:59:14;;;;;;;6.88;4.72;;;;;;;5.74;60.70;100436.72;5051283;28;20044;-78
2021/01/30 02:01:41;;;;;;;9.20;5.25;;;;;;;5.73;60.30;100441.09;5049462;28;20072;-76
2021/01/30 02:04:13;;;;;;;6.30;5.18;;;;;;;5.77;60.27;100439.31;5046339;28;20032;-78
2021/01/30 02:06:43;;;;;;;8.73;4.88;;;;;;;5.72;60.23;100443.72;5046272;28;20079;-78
2021/01/30 02:09:13;;;;;;;5.78;4.82;;;;;;;5.73;59.83;100441.09;5047471;28;20087;-78
2021/01/30 02:11:40;;;;;;;7.97;5.93;;;;;;;5.72;60.50;100439.34;5044597;28;20036;-77
2021/01/30 02:14:09;;;;;;;7.55;5.80;;;;;;;5.76;60.13;100430.56;5047117;28;20029;-78
2021/01/30 02:19:55;;;;;;;7.60;5.60;;;;;;;5.87;60.13;100437.47;5057261;28;20357;-79
2021/01/30 02:28:06;;;;;;;8.90;5.90;;;;;;;5.74;60.11;100437.56;5178173;27;20160;-78
2021/01/30 02:36:54;;;;;;;6.93;5.05;;;;;;;5.47;59.91;100438.59;5072585;28;20158;-79
2021/01/30 02:39:27;;;;;;;6.40;5.30;;;;;;;5.40;59.73;100448.28;5054383;28;20036;-78
2021/01/30 02:41:57;;;;;;;;;;;;;;;5.49;58.30;100440.34;5065552;28;20033;-78
2021/01/30 02:44:25;;;;;;;7.63;4.97;;;;;;;5.29;59.36;100439.59;5069918;28;20011;-78
2021/01/30 02:46:55;;;;;;;6.82;5.45;;;;;;;5.17;60.19;100451.00;5069558;28;20057;-79
2021/01/30 02:49:32;;;;;;;8.02;4.97;;;;;;;5.29;59.47;100444.84;5069921;28;20053;-79
2021/01/30 02:52:19;;;;;;;6.93;5.35;;;;;;;5.15;59.34;100443.16;5065251;28;20025;-78
2021/01/30 02:54:47;;;;;;;6.55;5.38;;;;;;;5.14;59.87;100438.75;5068978;28;20510;-79
2021/01/30 02:57:17;;;;;;;6.35;5.35;;;;;;;5.09;59.04;100442.31;5069549;28;20356;-78
2021/01/30 02:59:48;;;;;;;5.78;5.15;;;;;;;5.21;59.48;100437.00;5069385;28;20600;-78
2021/01/30 03:02:16;;;;;;;7.65;5.72;;;;;;;5.14;59.26;100449.28;5069252;28;20025;-79
2021/01/30 03:04:44;;;;;;;6.10;5.03;;;;;;;5.13;59.31;100454.53;5069612;28;20033;-79
2021/01/30 03:07:26;;;;;;;7.68;6.22;;;;;;;5.11;59.24;100457.19;5068639;28;20124;-79
2021/01/30 03:10:07;;;;;;;7.97;6.15;;;;;;;5.02;59.86;100451.94;5058249;28;20387;-78
2021/01/30 03:18:03;;;;;;;7.70;6.32;;;;;;;4.85;59.97;100459.88;5080083;27;20170;-79
2021/01/30 03:20:36;;;;;;;8.38;6.70;;;;;;;4.79;59.82;100455.50;5059839;28;20061;-78
2021/01/30 03:23:04;;;;;;;9.77;6.70;;;;;;;4.73;59.60;100466.03;5057362;28;20043;-78
2021/01/30 03:25:32;;;;;;;9.57;7.20;;;;;;;4.73;60.09;100463.41;5055905;28;20170;-79
2021/01/30 03:28:00;;;;;;;8.23;6.78;;;;;;;4.70;59.76;100464.28;5056815;28;20021;-79
2021/01/30 03:30:28;;;;;;;10.00;7.45;;;;;;;4.66;60.11;100464.28;5052924;28;20040;-78
2021/01/30 03:32:55;;;;;;;8.10;6.78;;;;;;;4.70;59.68;100455.56;5050734;28;20484;-79
2021/01/30 03:35:22;;;;;;;8.15;6.68;;;;;;;4.60;60.06;100456.41;5060984;28;20075;-79
2021/01/30 03:37:49;;;;;;;8.32;6.95;;;;;;;4.61;59.81;100459.06;5062873;28;20115;-79
2021/01/30 03:40:17;;;;;;;10.35;8.13;;;;;;;4.54;60.12;100460.81;5058255;28;20395;-80
2021/01/30 03:42:44;;;;;;;9.38;7.28;;;;;;;4.66;59.99;100462.56;5049321;28;20025;-79
2021/01/30 03:45:15;;;;;;;8.30;7.13;;;;;;;4.74;59.86;100462.53;5031793;28;20041;-79
2021/01/30 03:47:42;;;;;;;9.75;7.13;;;;;;;4.71;60.57;100452.06;5059509;28;20029;-78
2021/01/30 03:50:09;;;;;;;9.77;7.40;;;;;;;4.73;60.57;100452.91;5062498;28;20059;-78
2021/01/30 03:52:36;;;;;;;10.50;7.75;;;;;;;4.80;60.60;100462.53;5039718;28;20049;-78
2021/01/30 03:55:05;;;;;;;9.23;7.40;;;;;;;4.86;60.62;100466.91;5051283;28;20080;-79
2021/01/30 03:57:31;;;;;;;9.95;8.30;;;;;;;4.81;60.53;100452.88;5063507;28;20025;-79
2021/01/30 03:59:58;;;;;;;10.25;7.38;;;;;;;4.75;60.40;100453.78;5063787;28;20468;-80
2021/01/30 04:02:24;;;;;;;9.73;7.30;;;;;;;4.79;60.23;100447.63;5049683;28;20028;-79
2021/01/30 04:04:51;;;;;;;9.70;7.28;;;;;;;4.87;60.49;100431.88;5036810;28;20432;-78
2021/01/30 04:07:17;;;;;;;11.73;7.80;;;;;;;4.82;60.43;100436.25;5045667;28;20028;-78
2021/01/30 04:09:44;;;;;;;10.05;8.38;;;;;;;4.82;60.57;100434.53;5051273;28;20029;-78
2021/01/30 04:12:10;;;;;;;9.20;8.23;;;;;;;4.74;60.45;100436.28;5066514;28;20021;-78
2021/01/30 04:14:37;;;;;;;10.82;8.27;;;;;;;4.73;60.35;100436.28;5062777;28;20392;-78
2021/01/30 04:17:04;;;;;;;10.27;8.13;;;;;;;4.72;60.50;100445.91;5055463;28;20094;-78
2021/01/30 04:19:30;;;;;;;13.63;9.20;;;;;;;4.70;60.58;100434.56;5053754;28;20029;-79
2021/01/30 04:21:57;;;;;;;10.38;8.98;;;;;;;4.59;60.89;100441.59;5052493;28;20078;-78
2021/01/30 04:24:23;;;;;;;10.95;9.68;;;;;;;4.56;60.97;100437.22;5057170;28;20537;-78
2021/01/30 04:26:50;;;;;;;12.07;8.82;;;;;;;4.62;60.71;100433.69;5046447;28;20032;-79
2021/01/30 04:29:17;;;;;;;10.32;8.25;;;;;;;4.47;61.29;100431.97;5027246;28;20030;-78
2021/01/30 04:31:44;;;;;;;10.27;7.72;;;;;;;4.53;61.00;100438.06;5024848;28;20034;-79
2021/01/30 04:34:10;;;;;;;11.20;7.72;;;;;;;4.47;61.51;100443.31;5040805;28;20499;-79
2021/01/30 04:36:36;;;;;;;12.13;8.57;;;;;;;4.40;61.75;100435.47;5050926;28;20041;-78
2021/01/30 04:39:04;;;;;;;11.00;8.25;;;;;;;4.35;61.45;100433.72;5042750;28;20037;-78
2021/01/30 04:45:03;;;;;;;11.32;8.70;;;;;;;4.30;62.24;100437.22;5108835;27;20413;-78
2021/01/30 04:47:43;;;;;;;12.77;9.05;;;;;;;4.33;62.28;100434.63;5094505;28;20033;-79
2021/01/30 04:50:31;;;;;;;12.30;8.63;;;;;;;4.40;61.88;100435.47;5096348;28;20027;-79
2021/01/30 04:53:15;;;;;;;11.32;8.80;;;;;;;4.38;62.51;100427.59;5082317;28;20471;-79
2021/01/30 04:56:08;;;;;;;12.02;9.80;;;;;;;4.25;62.46;100425.88;5088365;28;20052;-79
2021/01/30 04:58:46;;;;;;;;;;;;;;;4.35;62.37;100423.25;5107271;28;20028;-79
2021/01/30 05:01:33;;;;;;;10.68;7.78;;;;;;;4.27;62.63;100424.97;5092213;28;19949;-79
2021/01/30 05:09:48;;;;;;;11.30;7.68;;;;;;;4.40;62.27;100425.88;5070458;27;20394;-78
2021/01/30 05:12:38;;;;;;;8.48;6.75;;;;;;;4.39;62.48;100424.13;5042899;28;20045;-78
2021/01/30 05:15:19;;;;;;;10.95;7.47;;;;;;;4.42;62.34;100421.47;5040053;28;20030;-80
2021/01/30 05:17:57;;;;;;;9.68;7.85;;;;;;;4.21;61.78;100399.66;5039570;28;20051;-78
2021/01/30 05:20:27;;;;;;;10.82;7.38;;;;;;;4.17;61.96;100408.38;5038750;28;20028;-79
2021/01/30 05:22:54;;;;;;;8.65;6.88;;;;;;;4.28;61.86;100410.16;5049279;28;20034;-78
2021/01/30 05:25:23;;;;;;;7.22;5.55;;;;;;;4.21;62.19;100407.53;5040976;28;20503;-79
2021/01/30 05:28:29;;;;;;;8.93;6.07;;;;;;;4.29;62.26;100404.03;5041400;28;20025;-78
2021/01/30 05:31:11;;;;;;;8.57;6.50;;;;;;;4.27;61.98;100408.38;5033030;28;20033;-78
2021/01/30 05:45:08;;;;;;;8.95;6.50;;;;;;;4.19;62.17;100403.16;5078271;27;20402;-78
2021/01/30 05:47:35;;;;;;;6.70;5.15;;;;;;;4.19;62.16;100400.53;5067888;28;20489;-78
2021/01/30 05:50:21;;;;;;;6.75;5.32;;;;;;;4.28;61.96;100400.50;5070035;28;20021;-78
2021/01/30 05:52:47;;;;;;;6.28;5.53;;;;;;;4.25;62.30;100405.78;5045868;28;20064;-78
2021/01/30 05:58:12;;;;;;;5.85;4.85;;;;;;;4.16;61.89;100398.78;5076502;28;20355;-79
2021/01/30 06:00:40;;;;;;;8.25;5.45;;;;;;;4.20;61.82;100403.16;5082250;28;20028;-79
2021/01/30 06:03:12;;;;;;;7.63;5.60;;;;;;;4.24;62.19;100404.03;5075949;28;20036;-78
2021/01/30 06:05:41;;;;;;;8.45;5.80;;;;;;;4.23;62.01;100404.03;5074151;28;20037;-78
2021/01/30 06:08:14;;;;;;;7.28;5.28;;;;;;;4.16;62.53;100411.00;5076158;28;20024;-79
2021/01/30 06:10:42;;;;;;;7.47;5.50;;;;;;;4.24;62.26;100406.66;5085877;28;20483;-79
2021/01/30 06:13:14;;;;;;;6.55;4.97;;;;;;;4.21;61.91;100412.78;5084345;28;20040;-79
2021/01/30 06:15:45;;;;;;;9.02;5.93;;;;;;;4.19;62.35;100400.53;5081397;28;20075;-78
2021/01/30 06:18:39;;;;;;;8.15;5.55;;;;;;;4.18;62.48;100402.25;5077634;28;20021;-78
2021/01/30 06:24:09;;;;;;;9.05;6.75;;;;;;;4.16;62.59;100411.00;5127511;27;20357;-78
2021/01/30 06:26:42;;;;;;;8.18;6.32;;;;;;;4.08;62.51;100399.69;5123245;27;20115;-78
2021/01/30 06:29:43;;;;;;;7.47;5.25;;;;;;;4.13;62.65;100411.88;5114981;28;20066;-78
2021/01/30 06:32:45;;;;;;;9.70;5.22;;;;;;;4.11;62.63;100411.03;5081353;28;20032;-78
2021/01/30 06:38:16;;;;;;;8.15;5.97;;;;;;;4.05;62.53;100411.91;5076406;28;20428;-79
2021/01/30 06:40:56;;;;;;;9.68;6.68;;;;;;;4.01;62.89;100409.28;5051778;28;20099;-79
2021/01/30 06:43:28;;;;;;;11.27;5.93;;;;;;;3.86;62.98;100411.03;5047851;28;20063;-79
2021/01/30 06:46:19;;;;;;;7.43;5.60;;;;;;;3.91;63.36;100407.53;5045699;28;20024;-79
2021/01/30 06:51:35;;;;;;;8.25;6.00;;;;;;;3.85;63.19;100401.41;5056794;28;20993;-79
2021/01/30 06:54:24;;;;;;;9.98;6.03;;;;;;;3.89;62.52;100402.28;5048368;28;20112;-79
2021/01/30 06:59:50;;;;;;;8.00;5.63;;;;;;;3.68;62.71;100395.28;5074788;27;20364;-79
2021/01/30 07:02:23;;;;;;;8.38;5.43;;;;;;;3.66;62.87;100392.66;5038413;28;20056;-79
2021/01/30 07:08:32;;;;;;;7.32;5.38;;;;;;;3.78;62.17;100396.19;5093920;27;20364;-78
2021/01/30 07:11:26;;;;;;;9.13;6.45;;;;;;;3.54;62.50;100401.38;5086908;28;20063;-78
2021/01/30 07:14:23;;;;;;;7.95;5.30;;;;;;;3.58;62.27;100396.13;5086283;28;20464;-79
2021/01/30 07:16:58;;;;;;;8.60;5.50;;;;;;;3.65;62.64;100395.28;5087663;28;20036;-79
2021/01/30 07:22:17;;;;;;;9.43;6.00;;;;;;;3.68;63.11;100397.91;5053719;28;20407;-79
2021/01/30 07:24:51;;;;;;;8.63;5.72;;;;;;;3.75;62.84;100399.66;5062631;28;20616;-80
2021/01/30 07:27:25;;;;;;;14.55;6.68;;;;;;;3.85;62.66;100396.19;5064376;28;20559;-79
2021/01/30 07:30:03;;;;;;;9.98;6.63;;;;;;;3.82;62.91;100400.53;5060707;28;20025;-77
2021/01/30 07:32:58;;;;;;;10.73;6.38;;;;;;;3.85;62.93;100390.94;5063790;28;20450;-78
2021/01/30 07:35:34;;;;;;;8.20;5.82;;;;;;;3.83;62.94;100392.66;5060924;28;20048;-80
2021/01/30 07:41:16;;;;;;;7.65;6.15;;;;;;;3.89;62.94;100386.56;5094887;27;20700;-79
2021/01/30 07:43:50;;;;;;;9.18;6.03;;;;;;;3.87;62.90;100383.91;5108489;28;20055;-79
2021/01/30 07:46:39;;;;;;;8.48;5.40;;;;;;;3.98;62.21;100383.94;5094916;27;20032;-79
2021/01/30 07:49:21;;;;;;;9.68;6.53;;;;;;;4.10;62.35;100377.81;5101679;28;20028;-79
2021/01/30 07:52:02;;;;;;;10.90;6.60;;;;;;;4.18;62.04;100385.66;5100763;28;20051;-79
2021/01/30 07:54:28;;;;;;;8.40;5.28;;;;;;;4.10;62.28;100385.69;5102206;28;20051;-79
2021/01/30 07:57:34;;;;;;;9.40;5.95;;;;;;;4.19;62.15;100385.66;5092618;28;20074;-78
2021/01/30 08:00:24;;;;;;;6.85;4.70;;;;;;;4.13;62.07;100385.66;5092145;28;20032;-79
2021/01/30 08:05:53;;;;;;;8.60;5.95;;;;;;;4.26;62.37;100391.78;5102987;27;20366;-78
2021/01/30 08:11:25;;;;;;;10.05;5.80;;;;;;;4.30;62.00;100382.16;5097205;27;20359;-79
2021/01/30 08:14:14;;;;;;;7.68;5.35;;;;;;;4.35;62.02;100385.66;5092652;28;20042;-79
2021/01/30 08:20:00;;;;;;;8.77;6.32;;;;;;;4.45;61.75;100392.63;5113234;27;20422;-79
2021/01/30 08:25:28;;;;;;;8.55;6.22;;;;;;;4.50;61.81;100380.38;5035006;27;1503128;-84
2021/01/30 08:28:01;;;;;;;;;;;;;;;4.48;61.30;100383.88;5073015;28;20041;-84
2021/01/30 08:30:29;;;;;;;6.97;4.55;;;;;;;4.34;61.60;100383.91;5083307;28;20012;-83
2021/01/30 08:32:59;;;;;;;7.70;5.50;;;;;;;4.47;61.23;100382.97;5082820;28;20064;-81
2021/01/30 08:43:43;;;;;;;15.15;9.32;;;;;;;4.54;60.71;100355.00;5075206;28;20446;-83
2021/01/30 08:46:38;;;;;;;70.90;34.13;;;;;;;4.68;60.75;100368.06;5059180;28;20032;-84
2021/01/30 08:52:04;;;;;;;9.60;7.13;;;;;;;4.61;60.47;100382.06;5034972;28;20501;-80
2021/01/30 08:54:35;;;;;;;8.80;6.57;;;;;;;4.68;60.68;100365.44;5040264;28;20033;-81
2021/01/30 08:57:05;;;;;;;8.93;6.75;;;;;;;4.65;60.19;100375.97;5049994;28;20477;-81
2021/01/30 08:59:52;;;;;;;10.32;7.13;;;;;;;4.55;59.45;100372.50;5032330;28;20026;-82
2021/01/30 09:11:18;;;;;;;9.70;7.18;;;;;;;4.86;59.34;100362.75;5059180;28;20414;-85
2021/01/30 09:14:07;;;;;;;10.50;5.85;;;;;;;4.95;59.58;100360.97;5067687;28;20123;-81
2021/01/30 09:16:45;;;;;;;10.07;6.18;;;;;;;5.03;59.13;100359.16;5063493;28;20041;-79
2021/01/30 09:19:23;;;;;;;10.63;6.82;;;;;;;5.01;59.41;100367.06;5058692;28;20115;-80
2021/01/30 09:25:09;;;;;;;9.23;6.78;;;;;;;5.17;59.32;100353.84;5034640;27;1568586;-82
2021/01/30 09:27:47;;;;;;;9.32;6.40;;;;;;;5.12;58.76;100353.88;5070139;28;20044;-82
2021/01/30 09:30:34;;;;;;;11.63;5.95;;;;;;;5.08;59.02;100357.38;5069520;28;20032;-81
2021/01/30 09:33:07;;;;;;;8.15;5.60;;;;;;;5.05;59.11;100357.41;5065202;28;20032;-83
2021/01/30 09:35:36;;;;;;;8.88;5.90;;;;;;;5.13;59.62;100365.25;5061327;28;20139;-82
2021/01/30 09:38:23;;;;;;;8.45;5.40;;;;;;;5.22;58.97;100359.06;5057589;28;20498;-81
2021/01/30 09:40:50;;;;;;;9.52;6.45;;;;;;;5.11;59.93;100361.75;5062515;28;20487;-81
2021/01/30 09:43:21;;;;;;;8.35;5.78;;;;;;;5.28;58.78;100354.66;5062443;28;20051;-81
2021/01/30 09:45:52;;;;;;;8.98;5.53;;;;;;;5.32;58.70;100360.75;5045214;28;20500;-84
2021/01/30 09:48:19;;;;;;;8.15;5.70;;;;;;;5.30;58.97;100363.41;5062295;28;20035;-82
2021/01/30 09:50:57;;;;;;;7.63;5.63;;;;;;;5.40;58.25;100361.59;5065868;23;20049;-78
2021/01/30 09:53:35;;;;;;;9.40;6.57;;;;;;;5.28;58.40;100359.94;5026311;28;20034;-78
2021/01/30 09:56:19;;;;;;;19.05;12.27;;;;;;;5.43;58.30;100363.31;5027983;28;20068;-77
2021/01/30 09:58:52;;;;;;;10.95;6.82;;;;;;;5.38;58.81;100355.47;5016099;28;20026;-79
2021/01/30 10:01:39;;;;;;;8.73;5.57;;;;;;;5.44;58.07;100355.41;5024447;28;20480;-79
2021/01/30 10:04:14;;;;;;;7.90;5.60;;;;;;;5.30;58.26;100344.16;5014453;28;20495;-80
2021/01/30 10:06:42;;;;;;;7.22;5.28;;;;;;;5.30;58.80;100346.78;5022827;28;20032;-79
2021/01/30 10:09:28;;;;;;;8.18;5.63;;;;;;;5.34;58.11;100348.50;5022270;28;20064;-79
2021/01/30 10:11:57;;;;;;;7.65;5.20;;;;;;;5.29;58.29;100345.03;5012049;28;20065;-78
2021/01/30 10:14:25;;;;;;;9.18;5.53;;;;;;;5.31;57.65;100353.78;5016189;28;20057;-80
2021/01/30 10:17:19;;;;;;;8.13;5.90;;;;;;;5.42;57.71;100354.56;5016372;28;20030;-79
2021/01/30 10:19:45;;;;;;;8.32;5.75;;;;;;;5.40;57.98;100352.84;5021100;28;20431;-78
2021/01/30 10:22:16;;;;;;;7.97;5.20;;;;;;;5.39;57.81;100351.94;5020017;28;20568;-81
2021/01/30 10:24:43;;;;;;;8.55;5.93;;;;;;;5.47;57.38;100350.16;5009629;28;20034;-81
2021/01/30 10:27:21;;;;;;;8.32;5.35;;;;;;;5.59;56.88;100348.31;5011570;28;20033;-80
2021/01/30 10:29:47;;;;;;;9.18;5.68;;;;;;;5.50;57.85;100350.13;5022714;28;20026;-81
2021/01/30 10:35:04;;;;;;;11.93;8.68;;;;;;;5.72;57.62;100357.88;5056274;28;20484;-79
2021/01/30 10:37:55;;;;;;;8.15;6.00;;;;;;;5.88;56.83;100353.34;5064900;28;20029;-79
2021/01/30 10:43:07;;;;;;;7.05;5.25;;;;;;;5.96;57.58;100348.03;5083606;27;20387;-79
2021/01/30 10:45:36;;;;;;;7.50;5.57;;;;;;;6.07;57.13;100356.72;5086348;28;20075;-79
2021/01/30 10:48:08;;;;;;;8.20;5.32;;;;;;;6.08;57.20;100347.94;5085255;28;20052;-81
2021/01/30 10:50:37;;;;;;;9.25;6.32;;;;;;;6.10;56.97;100351.41;5086943;28;20024;-79
2021/01/30 10:53:27;;;;;;;7.85;5.07;;;;;;;6.24;56.06;100342.53;5084429;28;20024;-79
2021/01/30 10:55:54;;;;;;;8.65;6.05;;;;;;;6.20;57.19;100348.72;5085851;28;20041;-79
2021/01/30 11:01:11;;;;;;;8.85;6.05;;;;;;;6.35;56.70;100337.16;5049628;28;20508;-80
2021/01/30 11:03:58;;;;;;;8.25;5.50;;;;;;;6.31;54.61;100338.94;5045640;28;21786;-81
2021/01/30 11:09:25;;;;;;;7.53;4.72;;;;;;;6.39;56.13;100321.31;5110175;27;20399;-81
2021/01/30 11:12:17;;;;;;;7.97;5.43;;;;;;;6.18;56.04;100316.28;5104434;28;20081;-88
2021/01/30 11:14:44;;;;;;;7.93;5.80;;;;;;;6.40;56.31;100314.28;5097834;28;20121;-81
2021/01/30 11:17:31;;;;;;;8.48;5.80;;;;;;;6.38;55.43;100309.06;5096008;28;20031;-80
2021/01/30 11:19:58;;;;;;;7.13;5.40;;;;;;;6.30;55.91;100317.00;5102235;28;20510;-80
2021/01/30 11:22:27;;;;;;;7.70;5.72;;;;;;;6.37;55.51;100316.94;5100808;28;20468;-81
2021/01/30 11:25:07;;;;;;;7.63;4.82;;;;;;;6.43;55.28;100328.28;5105321;28;20024;-81
2021/01/30 11:35:40;;;;;;;6.82;5.40;;;;;;;6.70;55.57;100309.56;5071080;28;20821;-81
2021/01/30 11:38:18;;;;;;;11.20;5.80;;;;;;;6.80;55.59;100313.81;5056831;28;20037;-80
2021/01/30 11:40:45;;;;;;;7.50;5.53;;;;;;;6.69;55.68;100307.81;5057983;28;20464;-81
2021/01/30 11:43:13;;;;;;;6.22;5.38;;;;;;;6.78;55.19;100298.03;5056969;28;20031;-80
2021/01/30 11:45:39;;;;;;;6.72;4.82;;;;;;;6.68;55.00;100293.78;5060456;28;20025;-84
2021/01/30 11:48:06;;;;;;;8.15;5.22;;;;;;;6.67;55.27;100292.03;5061591;28;20107;-83
2021/01/30 11:50:32;;;;;;;10.13;6.13;;;;;;;6.62;54.67;100296.50;5065473;28;20123;-83
2021/01/30 11:53:18;;;;;;;6.97;5.35;;;;;;;6.79;54.57;100285.72;5066129;28;20082;-85
2021/01/30 11:55:45;;;;;;;52.15;26.80;;;;;;;6.70;55.25;100277.97;5059579;28;20029;-84
2021/01/30 11:58:12;;;;;;;8.90;6.10;;;;;;;6.69;55.16;100271.84;5059570;28;20041;-81
2021/01/30 12:00:38;;;;;;;7.53;5.53;;;;;;;6.73;54.99;100270.00;5052531;28;20037;-80
2021/01/30 12:03:05;;;;;;;8.35;5.80;;;;;;;6.66;54.90;100261.31;5060377;28;20037;-82
2021/01/30 12:05:31;;;;;;;8.68;5.80;;;;;;;6.72;54.82;100255.97;5051945;28;20029;-81
2021/01/30 12:07:58;;;;;;;7.88;5.57;;;;;;;6.75;54.76;100255.06;5050205;28;20040;-82
2021/01/30 12:10:25;;;;;;;8.57;5.45;;;;;;;6.71;54.91;100254.22;5049978;28;20032;-82
2021/01/30 12:12:51;;;;;;;7.90;5.80;;;;;;;6.72;54.74;100245.44;5050016;28;20021;-81
2021/01/30 12:15:18;;;;;;;9.35;6.18;;;;;;;6.69;54.85;100242.88;5049740;28;20037;-82
2021/01/30 12:17:46;;;;;;;6.85;5.38;;;;;;;6.79;54.72;100240.97;5050167;28;20029;-82
2021/01/30 12:20:19;;;;;;;6.15;5.00;;;;;;;6.77;54.61;100242.75;5049912;28;20457;-82
2021/01/30 12:22:46;;;;;;;6.85;5.40;;;;;;;6.69;55.12;100240.25;5049773;28;20456;-81
2021/01/30 12:25:13;;;;;;;9.57;6.25;;;;;;;6.63;55.21;100240.31;5048576;28;20055;-82
2021/01/30 12:27:47;;;;;;;7.50;5.43;;;;;;;6.66;55.16;100244.69;5049594;28;20026;-82
2021/01/30 12:30:14;;;;;;;6.20;5.05;;;;;;;6.53;55.41;100231.69;5049786;28;20084;-82
2021/01/30 12:32:40;;;;;;;8.35;6.05;;;;;;;6.52;55.52;100229.03;5049969;28;20036;-82
2021/01/30 12:35:07;;;;;;;6.75;4.97;;;;;;;6.56;55.64;100231.63;5049104;28;20079;-82
2021/01/30 12:37:34;;;;;;;6.72;5.18;;;;;;;6.54;55.59;100229.91;5049589;28;20472;-82
2021/01/30 12:40:02;;;;;;;9.30;6.60;;;;;;;6.53;55.39;100228.16;5049830;28;20025;-82
2021/01/30 12:42:28;;;;;;;6.72;5.18;;;;;;;6.48;55.28;100234.34;5049391;28;20053;-82
2021/01/30 12:44:54;;;;;;;7.25;5.28;;;;;;;6.53;55.54;100236.94;5048149;28;20422;-82
2021/01/30 12:47:26;;;;;;;7.00;5.43;;;;;;;6.54;54.95;100245.69;5036015;28;20030;-82
2021/01/30 12:49:55;;;;;;;8.02;6.30;;;;;;;6.50;54.72;100249.25;5036396;28;20026;-83
2021/01/30 12:52:21;;;;;;;7.50;5.00;;;;;;;6.59;55.00;100254.41;5036167;28;20029;-82
2021/01/30 12:54:47;;;;;;;7.82;5.70;;;;;;;6.65;55.14;100243.78;5036167;28;20033;-82
2021/01/30 12:57:13;;;;;;;8.02;5.00;;;;;;;6.65;55.11;100235.88;5035880;28;20029;-82
2021/01/30 12:59:39;;;;;;;6.65;5.05;;;;;;;6.65;55.54;100230.63;5035905;28;20051;-82
2021/01/30 13:02:06;;;;;;;7.20;5.40;;;;;;;6.56;54.99;100239.50;5035696;28;20036;-81
2021/01/30 13:04:32;;;;;;;6.97;5.57;;;;;;;6.61;55.00;100226.31;5036008;28;20064;-81
2021/01/30 13:06:58;;;;;;;7.28;5.72;;;;;;;6.55;55.41;100221.13;5035900;28;20026;-82
2021/01/30 13:09:25;;;;;;;6.63;5.03;;;;;;;6.70;55.05;100225.31;5036454;28;20489;-82
2021/01/30 13:11:52;;;;;;;7.05;5.18;;;;;;;6.91;54.78;100229.38;5035879;28;20480;-82
2021/01/30 13:14:19;;;;;;;7.40;5.10;;;;;;;6.92;55.16;100220.59;5036082;28;20042;-82
2021/01/30 13:16:46;;;;;;;7.22;5.70;;;;;;;6.97;54.95;100217.00;5035584;28;20160;-81
2021/01/30 13:19:14;;;;;;;7.80;5.68;;;;;;;6.87;55.12;100227.72;5035591;28;20030;-82
2021/01/30 13:21:44;;;;;;;7.80;5.57;;;;;;;6.89;55.08;100220.63;5035428;28;20033;-81
2021/01/30 13:24:10;;;;;;;9.45;5.85;;;;;;;6.86;54.71;100218.91;5035224;28;20389;-82
2021/01/30 13:26:40;;;;;;;7.95;5.65;;;;;;;6.94;54.39;100217.06;5035733;28;20381;-83
2021/01/30 13:29:11;;;;;;;7.18;5.38;;;;;;;6.96;54.50;100211.75;5035258;28;20103;-80
2021/01/30 13:34:25;;;;;;;6.07;4.47;;;;;;;7.20;53.78;100214.91;5090640;27;20153;-82
2021/01/30 13:36:52;;;;;;;9.05;6.10;;;;;;;7.16;54.11;100216.69;5070764;28;20087;-82
2021/01/30 13:39:19;;;;;;;7.47;5.78;;;;;;;7.12;55.21;100226.41;5070620;28;20029;-81
2021/01/30 13:41:47;;;;;;;7.53;5.38;;;;;;;7.27;54.53;100211.28;5055255;28;20029;-82
2021/01/30 13:44:14;;;;;;;8.05;5.90;;;;;;;7.34;54.57;100212.91;5050293;28;20068;-82
2021/01/30 13:46:40;;;;;;;7.63;6.10;;;;;;;7.33;54.80;100220.81;5050820;28;20030;-81
2021/01/30 13:49:06;;;;;;;7.07;5.72;;;;;;;7.36;54.68;100226.06;5050677;28;20431;-82
2021/01/30 13:51:33;;;;;;;7.55;5.28;;;;;;;7.38;54.16;100225.13;5050593;28;20090;-82
2021/01/30 13:53:59;;;;;;;6.20;5.20;;;;;;;7.42;53.79;100226.81;5050371;28;20043;-82
2021/01/30 13:56:26;;;;;;;6.65;4.95;;;;;;;7.47;53.75;100229.38;5050500;28;20104;-82
2021/01/30 13:58:53;;;;;;;8.18;5.30;;;;;;;7.41;54.03;100225.09;5050101;28;20055;-82
2021/01/30 14:01:19;;;;;;;8.07;5.60;;;;;;;7.40;53.70;100212.81;5050278;28;20079;-82
2021/01/30 14:03:45;;;;;;;8.05;5.72;;;;;;;7.43;53.91;100211.88;5050393;28;20029;-82
2021/01/30 14:06:11;;;;;;;8.73;5.60;;;;;;;7.26;54.08;100213.03;5050499;28;20037;-81